Terminal Aerodrome Forecast
Issued by NWS

Home | Current Version | Previous Version | Text Only | Print | Product List | Glossary On
Versions: 1 2 3 4 5 6 7 8 9 10 11 12 13 14 15 16
000
FTUS43 KGRR 221142
TAFJXN
TAF
KJXN 221142Z 2212/2312 32009KT P6SM OVC035
     FM221600 31008KT P6SM BKN040
     FM222200 24007KT P6SM BKN040
     FM230200 21007KT P6SM BKN080=

USA.gov is the U.S. government's official web portal to all federal, state and local government web resources and services.